Flight Track Log - Related Links

Times and Time Zones

All times are in EDT time to prevent confusion due to time zone crossing. See the N510SR flight status page for this flight to view local times or setup timezone preferences in your user account.

Time Position Orientation Groundspeed Altitude Reporting Facility
EDT Latitude Longitude Course Direction KTS MPH feet Rate Location/Type
Fri 05:22:34 PM 40.8333 -74.1000 252° West 183 211 1,400  Level New York TRACON
Fri 05:23:34 PM 40.8167 -74.1667 252° West 221 254 1,600 1,636 Climbing New York TRACON
Fri 05:24:35 PM 40.8167 -74.2500 270° West 250 288 4,700 2,143 Climbing New York TRACON
Fri 05:25:40 PM 40.8500 -74.3500 294° West 263 303 6,100 667 Climbing New York TRACON
Fri 05:26:41 PM 40.9167 -74.3833 339° North 273 314 6,100  Level New York TRACON
Fri 05:27:40 PM 40.9667 -74.3333 37° Northeast 274 315 6,100  Level New York TRACON
Fri 05:28:41 PM 41.0333 -74.2667 37° Northeast 272 313 6,100  Level New York TRACON
Fri 05:29:41 PM 41.0833 -74.2000 45° Northeast 273 314 6,100 1,050 Level New York TRACON
Fri 05:30:41 PM 41.1333 -74.1333 45° Northeast 286 329 8,200 2,208 Climbing New York TRACON
Fri 05:31:46 PM 41.1667 -74.0167 69° East 323 372 10,700 2,256 Climbing New York TRACON
Fri 05:32:46 PM 41.2000 -73.9000 69° East 348 400 12,900 1,222 Climbing New York TRACON
Fri 05:35:22 PM 41.2708 -73.6275 71° East 321 369 15,100 1,156 Climbing Boston Center
Fri 05:36:24 PM 41.2972 -73.4872 76° East 321 369 17,100 984 Climbing Boston Center
Fri 05:37:24 PM 41.3561 -73.4164 42° Northeast 305 351 17,100  Level Boston Center
Fri 05:38:22 PM 41.4339 -73.3483 33° Northeast 312 359 17,100  Level Boston Center
Fri 05:39:23 PM 41.5158 -73.2633 38° Northeast 359 413 17,100  Level Boston Center
Fri 05:40:24 PM 41.6019 -73.1619 41° Northeast 374 430 17,100  Level Boston Center
Fri 05:41:25 PM 41.6775 -73.0850 37° Northeast 380 437 17,100  Level Boston Center
Fri 05:42:23 PM 41.7758 -73.0108 29° Northeast 370 426 17,100  Level Boston Center
Fri 05:43:24 PM 41.8678 -72.9475 27° Northeast 365 420 17,100  Level Boston Center
Fri 05:44:24 PM 41.9389 -72.8950 29° Northeast 365 420 17,100  Level Boston Center
Fri 05:45:24 PM 42.0539 -72.8147 27° Northeast 370 426 17,100  Level Boston Center
Fri 05:46:22 PM 42.1394 -72.7564 27° Northeast 378 435 17,100  Level Boston Center
Fri 05:47:22 PM 42.2231 -72.6953 28° Northeast 378 435 17,100  Level Boston Center
Fri 05:48:24 PM 42.3356 -72.6169 27° Northeast 378 435 17,100  Level Boston Center
Fri 05:49:24 PM 42.4211 -72.5553 28° Northeast 378 435 17,100  Level Boston Center
Fri 05:50:23 PM 42.5172 -72.4881 27° Northeast 378 435 17,100 -50 Level Boston Center
Fri 05:51:23 PM 42.6067 -72.4231 28° Northeast 378 435 17,000 -1,488 Descending Boston Center
Fri 05:52:24 PM 42.6900 -72.3667 26° Northeast 355 409 14,100 -1,636 Descending Boston Center
Fri 05:53:24 PM 42.7714 -72.3128 26° Northeast 331 381 13,700 -1,271 Descending Boston Center
Fri 05:54:22 PM 42.8589 -72.2928 10° North 318 366 11,600 -1,966 Descending Boston Center
Fri 05:55:23 PM 42.9381 -72.3039 354° North 298 343 9,800 -1,820 Descending Boston Center
Fri 05:56:24 PM 43.0150 -72.3153 354° North 284 327 7,900 -2,033 Descending Boston Center
Fri 05:57:24 PM 43.0903 -72.3206 357° North 272 313 5,700 -1,488 Descending Boston Center
Fri 05:58:25 PM 43.1653 -72.3292 355° North 272 313 4,900 -403 Descending Boston Center
Fri 05:59:23 PM 43.2403 -72.3375 355° North 272 313 4,900  Level Boston Center
Fri 06:00:24 PM 43.3089 -72.3431 357° North 261 300 4,900 -248 Level Boston Center
Fri 06:01:24 PM 43.3717 -72.3517 354° North 247 284 4,400 -650 Descending Boston Center
Fri 06:02:24 PM 43.4342 -72.3514 360° North 234 269 3,600 -458 Descending Boston Center
Fri 06:03:22 PM 43.4819 -72.3286 19° North 200 230 3,500 -407 Descending Boston Center
Fri 06:04:22 PM 43.5361 -72.3111 13° North 178 205 2,800 -700 Descending Boston Center

Login

Don't have an account? Register now (free) for customized features, flight alerts, and more!